weather station
Area: 10056 km2
The highest point: Plechý (1378 m.s.l.)
Total stations: 28
Stations online: 26
Stations offline: 2
Current weather
11°C

Meteorological map - weather stations in Jihočeský

. The meteorological maps show weather information from WARIO weather stations

Weather stations Jihočeský

 UpdatesNameStatusTemperatureHumidityWind speedWind direction
5.7.2020 03:07Předmíř-40.0 °C %1.6 m/s E
5.7.2020 03:06Bělčice14.2 °C86.3 %0.8 m/s NW
5.7.2020 03:07Borovany10.1 °C98.4 %1.3 m/s NW
5.7.2020 03:07Třeboň12.5 °C90.2 %0.0 m/s N
5.7.2020 03:07Litvínovice - Mokré12.4 °C91.2 %0.0 m/s S
5.7.2020 03:06Chrášťovice14.1 °C83.1 %0.8 m/s SW
5.7.2020 03:07Dubenec11.6 °C98.2 %0.0 m/s SW
5.7.2020 03:07České Budějovice - Haklovy Dvory13.2 °C90.4 %0.7 m/s NW
5.7.2020 03:07Jindřichův Hradec12.1 °C88.5 %0.0 m/s E
5.7.2020 03:07Kadov15.8 °C70.5 %1.8 m/s NE
5.7.2020 03:07České Budějovice19.7 °C56.9 %0.8 m/s SE
19.6.2020 09:35Lipno nad Vltavou12.1 °C79.7 %3.9 m/s SE
5.7.2020 03:07Vyšší Brod8.9 °C96.0 %0.0 m/s S
5.7.2020 03:06Dolní Vltavice14.6 °C88.7 %2.8 m/s SW
5.7.2020 03:07Hluboká nad Vltavou - Zámostí11.6 °C100.0 %0.0 m/s NE
5.7.2020 03:06Hluboká nad Vltavou11.9 °C86.5 %1.7 m/s NW
5.7.2020 03:06Písek - Budějovické Předměstí13.5 °C85.0 %0.7 m/s NE
5.7.2020 03:06Písek - Václavské Předměstí12.9 °C80.6 %1.5 m/s S
5.7.2020 03:07Radošovice11.2 °C91.2 %1.0 m/s E
5.7.2020 03:07Rataje10.3 °C100.0 %0.0 m/s W
5.7.2020 03:07Sedlice15.0 °C75.2 %2.0 m/s W
5.7.2020 03:07Sezimovo Ústí11.1 °C91.7 %0.0 m/s SW
5.7.2020 03:07Stachy14.9 °C73.8 %0.0 m/s SW
5.7.2020 03:07Strakonice14.4 °C100.0 %0.0 m/s N
5.7.2020 03:07Tábor14.8 °C82.3 %2.9 m/s NE
5.7.2020 03:07Novosedly11.0 °C100.0 %1.1 m/s NW
5.7.2020 03:07Veselí nad Lužnicí - Žíšov13.0 °C87.4 %0.0 m/s NW
20.6.2020 14:29Milevsko12.7 °C99.2 %0.0 m/s W
Email notifications
Enter your email address to subscribe to notifications about news at warioweather.com. Your email address will not be used for any purpose other than sending these emails and will not be provided to any third party. The subscription can be ended at any time.
All data are only indicative. The portal administrator has no responsibility for potentially incorrect data and related consequences. Publishing or further sharing of content from www.warioweather.com is only allowed with written consent from WANET s.r.o.